Time;durP1;ratioP1;P1;durP2;ratioP2;P2;SDS_P1;SDS_P2;PMS_P1;PMS_P2;Temp;Humidity;BMP_temperature;BMP_pressure;BME280_temperature;BME280_humidity;BME280_pressure;Samples;Min_cycle;Max_cycle;Signal;HPM_P1;HPM_P2
2023/11/01 00:01:57;;;;;;;13.50;7.68;;;8.90;99.90;;;;;;5049382;28;20052;-79
2023/11/01 00:04:23;;;;;;;16.55;8.32;;;8.80;99.90;;;;;;5046498;28;20507;-79
2023/11/01 00:06:50;;;;;;;13.15;7.47;;;8.80;99.90;;;;;;5053090;28;20045;-80
2023/11/01 00:09:16;;;;;;;14.02;7.90;;;8.90;99.90;;;;;;5046108;28;20045;-79
2023/11/01 00:11:43;;;;;;;17.27;8.57;;;8.90;99.90;;;;;;5047217;28;20108;-79
2023/11/01 00:14:10;;;;;;;15.18;8.27;;;8.80;99.90;;;;;;5046440;28;20047;-79
2023/11/01 00:16:36;;;;;;;17.27;8.13;;;8.90;99.90;;;;;;5048064;28;20030;-79
2023/11/01 00:19:03;;;;;;;16.98;8.90;;;8.80;99.90;;;;;;5052876;28;20033;-80
2023/11/01 00:21:30;;;;;;;16.55;8.85;;;8.80;99.90;;;;;;5047722;28;20041;-79
2023/11/01 00:23:57;;;;;;;19.02;8.90;;;8.90;99.90;;;;;;5052336;28;20045;-80
2023/11/01 00:26:24;;;;;;;15.65;9.05;;;8.90;99.90;;;;;;5063007;28;20041;-79
2023/11/01 00:28:50;;;;;;;15.48;9.55;;;8.90;99.90;;;;;;5053256;28;20083;-80
2023/11/01 00:31:17;;;;;;;16.90;9.43;;;9.60;99.90;;;;;;5042981;28;20121;-79
2023/11/01 00:33:44;;;;;;;17.88;9.45;;;9.00;99.90;;;;;;5041975;28;20529;-79
2023/11/01 00:36:10;;;;;;;20.60;9.02;;;9.00;99.90;;;;;;5052839;28;20454;-79
2023/11/01 00:38:37;;;;;;;17.65;10.05;;;9.10;99.90;;;;;;5038397;28;20068;-79
2023/11/01 00:41:04;;;;;;;18.15;9.65;;;9.10;99.90;;;;;;5046130;28;20794;-79
2023/11/01 00:43:31;;;;;;;20.15;10.25;;;9.10;99.90;;;;;;5011272;28;20073;-79
2023/11/01 00:45:58;;;;;;;19.88;10.05;;;9.10;99.90;;;;;;5054239;28;20041;-79
2023/11/01 00:48:25;;;;;;;21.35;10.27;;;9.30;99.90;;;;;;5054952;28;20069;-79
2023/11/01 00:50:52;;;;;;;27.13;10.63;;;9.10;99.90;;;;;;5052648;28;20495;-80
2023/11/01 00:53:18;;;;;;;25.13;10.25;;;9.10;99.90;;;;;;5045195;28;20048;-79
2023/11/01 00:55:45;;;;;;;20.27;9.68;;;9.10;99.90;;;;;;5050927;28;20456;-79
2023/11/01 00:58:13;;;;;;;26.60;11.05;;;9.20;99.90;;;;;;5049442;28;20044;-79
2023/11/01 01:00:40;;;;;;;29.90;11.48;;;9.40;99.90;;;;;;5035325;28;20450;-79
2023/11/01 01:03:08;;;;;;;23.63;11.88;;;9.20;99.90;;;;;;5068457;28;20080;-79
2023/11/01 01:05:34;;;;;;;21.77;11.45;;;9.20;99.90;;;;;;5034256;28;20553;-79
2023/11/01 01:08:01;;;;;;;24.60;11.65;;;9.20;99.90;;;;;;5055669;28;20045;-79
2023/11/01 01:10:28;;;;;;;27.98;13.10;;;9.20;99.90;;;;;;5039129;28;20053;-79
2023/11/01 01:12:55;;;;;;;26.60;12.07;;;9.30;99.90;;;;;;5063545;28;20049;-79
2023/11/01 01:15:21;;;;;;;29.48;13.65;;;9.30;99.90;;;;;;5062183;28;20041;-79
2023/11/01 01:17:48;;;;;;;31.17;12.68;;;9.30;99.90;;;;;;5055347;28;20041;-79
2023/11/01 01:20:15;;;;;;;33.40;12.73;;;9.30;99.90;;;;;;5044486;28;20080;-79
2023/11/01 01:22:41;;;;;;;25.48;13.10;;;9.30;99.90;;;;;;5051834;28;20439;-80
2023/11/01 01:25:08;;;;;;;32.45;13.60;;;9.70;99.90;;;;;;5032347;28;20034;-79
2023/11/01 01:27:35;;;;;;;29.88;14.30;;;9.50;99.90;;;;;;5060594;28;20733;-79
2023/11/01 01:30:01;;;;;;;29.20;14.05;;;9.40;99.90;;;;;;5041319;28;20049;-79
2023/11/01 01:32:33;;;;;;;29.02;13.70;;;9.40;99.90;;;;;;5031300;28;20415;-79
2023/11/01 01:34:59;;;;;;;32.63;14.50;;;9.60;99.90;;;;;;5051650;28;20067;-79
2023/11/01 01:37:26;;;;;;;34.65;15.77;;;9.40;99.90;;;;;;5048964;28;20116;-79
2023/11/01 01:39:53;;;;;;;33.80;14.02;;;9.40;99.90;;;;;;5051784;28;20037;-79
2023/11/01 01:42:19;;;;;;;29.55;14.50;;;9.40;99.90;;;;;;5043828;28;20073;-79
2023/11/01 01:44:46;;;;;;;30.77;14.75;;;9.50;99.90;;;;;;5039333;28;20130;-80
2023/11/01 01:47:13;;;;;;;29.85;13.98;;;9.50;99.90;;;;;;5037194;28;20042;-79
2023/11/01 01:49:40;;;;;;;32.90;14.45;;;9.30;99.90;;;;;;5051410;28;20045;-80
2023/11/01 01:52:06;;;;;;;29.67;13.20;;;9.30;99.90;;;;;;5051151;28;20038;-79
2023/11/01 01:54:33;;;;;;;28.30;13.95;;;9.40;99.90;;;;;;5062510;28;20038;-79
2023/11/01 01:57:00;;;;;;;29.65;14.32;;;9.40;99.90;;;;;;5051211;28;20033;-79
2023/11/01 01:59:27;;;;;;;32.17;14.52;;;9.40;99.90;;;;;;5035604;28;20085;-79
2023/11/01 02:01:55;;;;;;;30.88;14.48;;;9.60;99.90;;;;;;5076873;28;20041;-79
2023/11/01 02:04:22;;;;;;;29.15;14.65;;;9.50;99.90;;;;;;5034702;28;20038;-79
2023/11/01 02:06:49;;;;;;;34.55;14.75;;;9.40;99.90;;;;;;5035343;28;20037;-79
2023/11/01 02:09:16;;;;;;;34.20;15.65;;;9.40;99.90;;;;;;5043541;28;20042;-79
2023/11/01 02:11:43;;;;;;;33.58;15.48;;;9.40;99.90;;;;;;5067395;28;20045;-79
2023/11/01 02:14:10;;;;;;;34.38;16.08;;;9.50;99.90;;;;;;5038665;28;20045;-79
2023/11/01 02:16:40;;;;;;;31.95;15.52;;;9.50;99.90;;;;;;5046402;28;20467;-79
2023/11/01 02:19:08;;;;;;;31.70;16.38;;;9.50;99.90;;;;;;5051008;28;20077;-79
2023/11/01 02:21:36;;;;;;;34.72;15.43;;;9.50;99.90;;;;;;5038638;28;20048;-79
2023/11/01 02:24:03;;;;;;;32.70;15.75;;;9.90;99.90;;;;;;5033566;28;20038;-79
2023/11/01 02:26:30;;;;;;;34.40;15.10;;;9.40;99.90;;;;;;5072683;28;20041;-79
2023/11/01 02:28:56;;;;;;;30.38;14.55;;;9.40;99.90;;;;;;5053500;28;20046;-79
2023/11/01 02:31:23;;;;;;;27.80;13.57;;;9.40;99.90;;;;;;5040727;28;20044;-79
2023/11/01 02:33:50;;;;;;;28.65;14.35;;;9.30;99.90;;;;;;5030682;28;20489;-79
2023/11/01 02:36:16;;;;;;;28.70;14.88;;;9.30;99.90;;;;;;5056477;28;20038;-79
2023/11/01 02:38:43;;;;;;;28.13;14.57;;;9.20;99.90;;;;;;5039951;28;20080;-79
2023/11/01 02:41:09;;;;;;;26.85;13.90;;;9.20;99.90;;;;;;5044816;28;20554;-79
2023/11/01 02:43:36;;;;;;;25.08;13.98;;;9.20;99.90;;;;;;5050013;28;20041;-79
2023/11/01 02:46:03;;;;;;;27.98;14.98;;;9.20;99.90;;;;;;5043869;28;20116;-79
2023/11/01 02:48:30;;;;;;;24.48;13.48;;;9.10;99.90;;;;;;5037084;28;20179;-79
2023/11/01 02:50:56;;;;;;;27.23;13.75;;;9.10;99.90;;;;;;5050386;28;20044;-79
2023/11/01 02:53:23;;;;;;;24.98;13.70;;;9.10;99.90;;;;;;5043782;28;20041;-79
2023/11/01 02:55:50;;;;;;;23.83;13.80;;;9.00;99.90;;;;;;5031149;28;20042;-82
2023/11/01 02:58:17;;;;;;;28.35;13.50;;;9.00;99.90;;;;;;5023138;28;20448;-81
2023/11/01 03:00:43;;;;;;;26.38;13.85;;;9.00;99.90;;;;;;5036680;28;20141;-79
2023/11/01 03:03:11;;;;;;;26.02;13.48;;;9.50;99.90;;;;;;5066178;28;20072;-79
2023/11/01 03:05:37;;;;;;;25.30;13.13;;;8.90;99.90;;;;;;5045566;28;20124;-79
2023/11/01 03:08:04;;;;;;;24.73;13.05;;;9.00;99.90;;;;;;5036163;28;20469;-79
2023/11/01 03:10:31;;;;;;;28.55;12.98;;;9.00;99.90;;;;;;5031916;28;20046;-79
2023/11/01 03:12:57;;;;;;;26.83;13.13;;;8.90;99.90;;;;;;5036582;28;20049;-79
2023/11/01 03:15:24;;;;;;;23.50;12.68;;;8.90;99.90;;;;;;5043232;28;20060;-79
2023/11/01 03:17:51;;;;;;;26.63;13.80;;;8.90;99.90;;;;;;5033836;28;20160;-79
2023/11/01 03:20:17;;;;;;;28.60;13.93;;;8.90;99.90;;;;;;5032854;28;20038;-79
2023/11/01 03:22:44;;;;;;;26.60;13.60;;;9.30;99.90;;;;;;5046312;28;20037;-79
2023/11/01 03:25:10;;;;;;;27.67;13.77;;;9.20;99.90;;;;;;5040874;28;20415;-79
2023/11/01 03:27:37;;;;;;;27.65;13.75;;;9.40;99.90;;;;;;5040063;28;20049;-79
2023/11/01 03:30:04;;;;;;;29.30;13.32;;;9.10;99.90;;;;;;5041227;28;20048;-79
2023/11/01 03:32:31;;;;;;;26.60;13.65;;;9.20;99.90;;;;;;5038610;28;20116;-79
2023/11/01 03:34:58;;;;;;;24.92;12.48;;;9.20;99.90;;;;;;5049664;28;20073;-79
2023/11/01 03:37:24;;;;;;;26.45;12.93;;;9.30;99.90;;;;;;5043052;28;20033;-79
2023/11/01 03:39:52;;;;;;;23.50;12.52;;;9.30;99.90;;;;;;5049587;28;20381;-79
2023/11/01 03:42:20;;;;;;;26.05;12.48;;;9.30;99.90;;;;;;5028742;28;20832;-79
2023/11/01 03:44:49;;;;;;;22.23;12.82;;;9.30;99.90;;;;;;5041712;28;20136;-79
2023/11/01 03:47:16;;;;;;;30.52;11.98;;;9.30;99.90;;;;;;5037040;28;20045;-79
2023/11/01 03:49:42;;;;;;;23.80;11.90;;;9.30;99.90;;;;;;5049783;28;20132;-79
2023/11/01 03:52:09;;;;;;;27.92;12.32;;;9.30;99.90;;;;;;5036246;28;20496;-79
2023/11/01 03:54:35;;;;;;;21.30;11.63;;;9.90;99.90;;;;;;5044388;28;20041;-79
2023/11/01 03:57:02;;;;;;;23.63;11.52;;;9.40;99.90;;;;;;5049491;28;20073;-80
2023/11/01 03:59:30;;;;;;;26.13;11.73;;;9.90;99.90;;;;;;5043438;28;20057;-79
2023/11/01 04:01:57;;;;;;;21.15;11.65;;;9.50;99.90;;;;;;5036520;28;20080;-79
2023/11/01 04:04:23;;;;;;;25.48;11.23;;;9.70;99.90;;;;;;5041497;28;20084;-79
2023/11/01 04:06:50;;;;;;;24.60;11.75;;;10.00;99.90;;;;;;5032163;28;20034;-79
2023/11/01 04:09:17;;;;;;;21.83;11.88;;;9.50;99.90;;;;;;5022536;28;20046;-79
2023/11/01 04:11:43;;;;;;;23.75;11.68;;;9.50;99.90;;;;;;5049261;28;20065;-79
2023/11/01 04:14:10;;;;;;;25.67;11.40;;;9.80;99.90;;;;;;5053503;28;20092;-79
2023/11/01 04:16:37;;;;;;;22.75;11.20;;;9.60;99.90;;;;;;5054801;28;20116;-79
2023/11/01 04:19:03;;;;;;;27.05;11.77;;;9.70;99.90;;;;;;5042814;28;20034;-79
2023/11/01 04:21:30;;;;;;;19.80;10.82;;;9.70;99.90;;;;;;5040551;28;20436;-79
2023/11/01 04:23:57;;;;;;;21.58;11.57;;;9.70;99.90;;;;;;5048658;28;20068;-79
2023/11/01 04:26:23;;;;;;;21.92;11.40;;;9.70;99.90;;;;;;5030380;28;20040;-79
2023/11/01 04:28:51;;;;;;;17.92;10.85;;;9.70;99.90;;;;;;5037600;28;20080;-79
2023/11/01 04:31:24;;;;;;;22.75;11.43;;;9.60;99.90;;;;;;5062378;28;20049;-79
2023/11/01 04:33:54;;;;;;;19.33;11.27;;;9.70;99.90;;;;;;5029631;28;20053;-79
2023/11/01 04:36:24;;;;;;;27.67;11.05;;;9.70;99.90;;;;;;5043294;28;20090;-79
2023/11/01 04:38:55;;;;;;;26.08;11.50;;;9.90;99.90;;;;;;5049198;28;20038;-79
2023/11/01 04:41:23;;;;;;;24.80;10.73;;;9.80;99.90;;;;;;5052813;28;20092;-79
2023/11/01 04:43:49;;;;;;;21.15;11.10;;;9.80;99.90;;;;;;5029399;28;20080;-79
2023/11/01 04:46:16;;;;;;;22.02;10.65;;;10.50;99.90;;;;;;5051035;28;20042;-79
2023/11/01 04:48:42;;;;;;;23.38;11.23;;;9.90;99.90;;;;;;5047526;28;20045;-79
2023/11/01 04:51:09;;;;;;;23.88;11.27;;;9.80;99.90;;;;;;5052752;28;20037;-79
2023/11/01 04:53:36;;;;;;;22.50;10.93;;;9.80;99.90;;;;;;5046731;28;20156;-79
2023/11/01 04:56:05;;;;;;;22.55;10.15;;;10.20;99.90;;;;;;5046842;28;20490;-79
2023/11/01 04:58:34;;;;;;;20.38;10.10;;;9.90;99.90;;;;;;5046797;28;20033;-79
2023/11/01 05:01:04;;;;;;;21.52;10.75;;;10.30;99.90;;;;;;5049746;28;20474;-79
2023/11/01 05:03:32;;;;;;;22.58;10.55;;;9.90;99.90;;;;;;5027252;28;20052;-79
2023/11/01 05:05:58;;;;;;;23.10;10.43;;;10.10;99.90;;;;;;5052134;28;20075;-79
2023/11/01 05:08:25;;;;;;;18.33;9.82;;;10.00;99.90;;;;;;5045867;28;20085;-79
2023/11/01 05:10:52;;;;;;;20.55;10.15;;;10.00;99.90;;;;;;5052271;28;20160;-79
2023/11/01 05:13:18;;;;;;;20.60;10.30;;;10.00;99.90;;;;;;5032322;28;20124;-79
2023/11/01 05:15:45;;;;;;;23.70;10.65;;;10.00;99.90;;;;;;5068786;28;20045;-80
2023/11/01 05:18:12;;;;;;;21.52;11.25;;;10.10;99.90;;;;;;5052018;28;20041;-79
2023/11/01 05:20:39;;;;;;;20.98;9.68;;;10.20;99.90;;;;;;5039183;28;20030;-79
2023/11/01 05:23:07;;;;;;;22.50;10.45;;;10.20;99.90;;;;;;5051856;28;20045;-79
2023/11/01 05:25:34;;;;;;;18.35;10.15;;;10.20;99.90;;;;;;5033134;28;20124;-81
2023/11/01 05:28:01;;;;;;;20.42;10.23;;;10.10;99.90;;;;;;5039991;28;20128;-80
2023/11/01 05:30:27;;;;;;;20.25;10.18;;;10.70;99.90;;;;;;5045956;28;20080;-80
2023/11/01 05:32:56;;;;;;;21.75;9.88;;;10.20;99.90;;;;;;5049664;28;20124;-81
2023/11/01 05:35:23;;;;;;;21.52;10.45;;;10.20;99.90;;;;;;5035093;28;20454;-80
2023/11/01 05:37:50;;;;;;;24.00;10.88;;;10.20;99.90;;;;;;5051863;28;20102;-81
2023/11/01 05:40:16;;;;;;;23.13;10.35;;;10.20;99.90;;;;;;5060418;28;20458;-80
2023/11/01 05:42:45;;;;;;;18.92;10.43;;;10.20;99.90;;;;;;5051858;28;20038;-81
2023/11/01 05:45:16;;;;;;;20.55;9.40;;;10.20;99.90;;;;;;5051627;28;20064;-80
2023/11/01 05:47:50;;;;;;;20.95;9.90;;;10.30;99.90;;;;;;5038390;28;20419;-80
2023/11/01 05:50:27;;;;;;;19.50;10.05;;;10.30;99.90;;;;;;5024591;28;20042;-81
2023/11/01 05:52:56;;;;;;;19.23;10.18;;;10.30;99.90;;;;;;5043763;28;20046;-81
2023/11/01 05:55:24;;;;;;;19.55;9.65;;;10.30;99.90;;;;;;5048029;28;20519;-80
2023/11/01 05:57:50;;;;;;;25.13;9.93;;;10.30;99.90;;;;;;5065898;28;20041;-80
2023/11/01 06:00:22;;;;;;;17.00;9.35;;;10.30;99.90;;;;;;5042322;28;20061;-80
2023/11/01 06:02:49;;;;;;;25.65;10.15;;;10.30;99.90;;;;;;5040621;28;20800;-80
2023/11/01 06:05:16;;;;;;;17.75;9.43;;;10.30;99.90;;;;;;5027825;28;20045;-80
2023/11/01 06:07:43;;;;;;;16.92;9.70;;;10.60;99.90;;;;;;5051109;28;20044;-81
2023/11/01 06:10:10;;;;;;;23.00;9.57;;;10.60;99.90;;;;;;5050839;28;20037;-80
2023/11/01 06:12:37;;;;;;;16.10;8.68;;;10.20;99.90;;;;;;5046200;28;20053;-81
2023/11/01 06:15:04;;;;;;;20.90;9.10;;;10.20;99.90;;;;;;5038147;28;20033;-81
2023/11/01 06:17:31;;;;;;;18.05;8.15;;;10.20;99.90;;;;;;5044786;28;20492;-81
2023/11/01 06:19:57;;;;;;;18.30;8.95;;;10.20;99.90;;;;;;5043432;28;20046;-80
2023/11/01 06:22:24;;;;;;;18.60;8.75;;;10.20;99.90;;;;;;5037096;28;20404;-80
2023/11/01 06:24:51;;;;;;;17.30;8.52;;;10.20;99.90;;;;;;5041027;28;20044;-80
2023/11/01 06:27:18;;;;;;;18.10;8.43;;;10.20;99.90;;;;;;5038392;28;20041;-80
2023/11/01 06:29:44;;;;;;;18.95;8.13;;;10.30;99.90;;;;;;5036152;28;20041;-80
2023/11/01 06:32:12;;;;;;;14.60;8.43;;;10.40;99.90;;;;;;5041487;28;20388;-80
2023/11/01 06:34:38;;;;;;;20.77;8.13;;;10.40;99.90;;;;;;5042513;28;20090;-80
2023/11/01 06:37:05;;;;;;;16.60;7.80;;;10.30;99.90;;;;;;5034145;28;20484;-80
2023/11/01 06:39:32;;;;;;;16.10;8.15;;;10.40;99.90;;;;;;5046287;28;20125;-80
2023/11/01 06:41:59;;;;;;;14.85;7.82;;;10.40;99.90;;;;;;5041038;28;20038;-80
2023/11/01 06:44:26;;;;;;;20.30;8.63;;;10.40;99.90;;;;;;5029691;28;20041;-81
2023/11/01 06:46:52;;;;;;;14.38;7.70;;;10.40;99.90;;;;;;5052886;28;20044;-80
2023/11/01 06:49:19;;;;;;;18.90;7.90;;;10.40;99.90;;;;;;5039259;28;20038;-80
2023/11/01 06:51:49;;;;;;;17.23;7.53;;;10.50;99.90;;;;;;5062212;28;20033;-80
2023/11/01 06:54:16;;;;;;;14.27;7.40;;;10.50;99.90;;;;;;5013884;28;20042;-80
2023/11/01 06:56:46;;;;;;;16.42;7.10;;;10.50;99.90;;;;;;5023733;28;20492;-81
2023/11/01 06:59:13;;;;;;;17.90;7.18;;;10.50;99.90;;;;;;5038577;28;20038;-81
2023/11/01 07:01:41;;;;;;;15.27;6.97;;;10.50;99.90;;;;;;5038110;28;20491;-81
2023/11/01 07:04:08;;;;;;;16.30;7.28;;;10.60;99.90;;;;;;5043397;28;20045;-80
2023/11/01 07:06:35;;;;;;;18.65;7.90;;;10.60;99.90;;;;;;5055452;28;20039;-80
2023/11/01 07:09:05;;;;;;;19.17;7.25;;;10.60;99.90;;;;;;5041288;28;20045;-80
2023/11/01 07:11:31;;;;;;;15.02;7.13;;;10.60;99.90;;;;;;5057938;28;20124;-80
2023/11/01 07:13:58;;;;;;;15.85;7.05;;;10.90;99.90;;;;;;5044632;28;20120;-80
2023/11/01 07:16:25;;;;;;;18.25;7.20;;;10.70;99.90;;;;;;5053461;28;20040;-80
2023/11/01 07:18:51;;;;;;;12.43;6.88;;;10.70;99.90;;;;;;5053227;28;20102;-80
2023/11/01 07:21:18;;;;;;;13.80;6.93;;;10.70;99.90;;;;;;5053664;28;20045;-80
2023/11/01 07:23:45;;;;;;;16.88;7.10;;;10.70;99.90;;;;;;5041272;28;20077;-81
2023/11/01 07:26:12;;;;;;;13.77;7.10;;;10.70;99.90;;;;;;5039514;28;20048;-81
2023/11/01 07:28:38;;;;;;;15.50;7.22;;;10.70;99.90;;;;;;5036742;28;20037;-81
2023/11/01 07:31:05;;;;;;;17.58;6.70;;;11.30;99.90;;;;;;5044578;28;20598;-81
2023/11/01 07:33:32;;;;;;;11.93;6.70;;;10.80;99.90;;;;;;5044826;28;20045;-80
2023/11/01 07:35:58;;;;;;;17.50;6.47;;;10.80;99.90;;;;;;5036896;28;20045;-81
2023/11/01 07:38:25;;;;;;;16.38;6.80;;;10.90;99.90;;;;;;5052726;28;20045;-80
2023/11/01 07:40:52;;;;;;;13.30;6.38;;;10.80;99.90;;;;;;5051781;28;20045;-80
2023/11/01 07:43:18;;;;;;;12.07;6.70;;;10.80;99.90;;;;;;5037155;28;20045;-81
2023/11/01 07:45:45;;;;;;;11.32;6.68;;;10.90;99.90;;;;;;5045091;28;20434;-81
2023/11/01 07:48:12;;;;;;;13.13;7.20;;;11.40;99.90;;;;;;5046500;28;20033;-80
2023/11/01 07:50:40;;;;;;;18.85;7.57;;;10.90;99.90;;;;;;5042981;28;20038;-80
2023/11/01 07:53:06;;;;;;;13.10;6.95;;;10.90;99.90;;;;;;5047277;28;20422;-80
2023/11/01 07:55:33;;;;;;;18.15;7.80;;;11.00;99.90;;;;;;5042469;28;20045;-80
2023/11/01 07:58:00;;;;;;;12.85;7.05;;;11.00;99.90;;;;;;5040042;28;20134;-80
2023/11/01 08:00:27;;;;;;;14.07;7.25;;;11.30;99.90;;;;;;5041608;28;20053;-80
2023/11/01 08:02:54;;;;;;;18.95;7.78;;;11.00;99.90;;;;;;5060598;28;20423;-80
2023/11/01 08:05:21;;;;;;;12.65;7.05;;;11.00;99.90;;;;;;5057173;28;20046;-81
2023/11/01 08:07:49;;;;;;;13.52;7.93;;;11.00;99.90;;;;;;5038281;28;20041;-80
2023/11/01 08:10:16;;;;;;;15.30;7.47;;;11.10;99.90;;;;;;5030502;28;20088;-80
2023/11/01 08:12:43;;;;;;;12.60;7.18;;;11.10;99.90;;;;;;5059764;28;20406;-80
2023/11/01 08:15:11;;;;;;;15.57;7.30;;;11.10;99.90;;;;;;5052642;28;20486;-80
2023/11/01 08:17:38;;;;;;;12.40;7.20;;;11.10;99.90;;;;;;5065138;28;20565;-80
2023/11/01 08:20:06;;;;;;;14.20;7.03;;;11.20;99.90;;;;;;5039420;28;20029;-81
2023/11/01 08:22:33;;;;;;;14.68;7.05;;;11.20;99.90;;;;;;5048391;28;20037;-80
2023/11/01 08:25:00;;;;;;;13.07;7.05;;;11.20;99.90;;;;;;5051522;28;20090;-81
2023/11/01 08:27:27;;;;;;;13.35;6.95;;;11.20;99.90;;;;;;5042521;28;20128;-80
2023/11/01 08:29:55;;;;;;;10.98;7.55;;;11.40;99.90;;;;;;5049607;28;20118;-80
2023/11/01 08:32:21;;;;;;;13.68;6.55;;;11.20;99.90;;;;;;5041776;28;20128;-80
2023/11/01 08:34:48;;;;;;;8.80;6.65;;;11.30;99.90;;;;;;5038354;28;20038;-80
2023/11/01 08:37:14;;;;;;;12.43;6.32;;;11.30;99.90;;;;;;5042634;28;20042;-80
2023/11/01 08:39:42;;;;;;;12.80;6.13;;;11.30;99.90;;;;;;5040683;28;20088;-80
2023/11/01 08:42:09;;;;;;;12.10;6.07;;;11.20;99.90;;;;;;5048703;28;20044;-82
2023/11/01 08:44:35;;;;;;;10.02;6.30;;;11.30;99.90;;;;;;5049672;28;20495;-81
2023/11/01 08:47:04;;;;;;;8.82;5.85;;;11.30;99.90;;;;;;5064417;28;20125;-81
2023/11/01 08:49:31;;;;;;;11.45;5.75;;;11.30;99.90;;;;;;5056598;28;20487;-81
2023/11/01 08:51:58;;;;;;;11.02;6.20;;;11.30;99.90;;;;;;5042392;28;20037;-81
2023/11/01 08:54:25;;;;;;;9.80;5.65;;;11.20;99.90;;;;;;5053276;28;20050;-81
2023/11/01 08:56:51;;;;;;;11.55;5.70;;;11.30;99.90;;;;;;5044601;28;20494;-82
2023/11/01 08:59:18;;;;;;;10.40;4.90;;;11.30;99.90;;;;;;5058768;28;21767;-82
2023/11/01 09:01:45;;;;;;;9.60;5.13;;;11.30;99.90;;;;;;5065299;28;20041;-82
2023/11/01 09:04:13;;;;;;;7.35;4.40;;;11.30;99.90;;;;;;5042965;28;20458;-81
2023/11/01 09:06:40;;;;;;;8.27;4.82;;;11.30;99.90;;;;;;5048838;28;20052;-82
2023/11/01 09:09:06;;;;;;;7.72;4.53;;;11.40;99.90;;;;;;5050017;28;20815;-82
2023/11/01 09:11:33;;;;;;;6.82;4.32;;;11.30;99.90;;;;;;5032108;28;20048;-82
2023/11/01 09:14:00;;;;;;;8.40;4.10;;;10.90;99.90;;;;;;5045881;28;20068;-82
2023/11/01 09:16:27;;;;;;;7.18;4.25;;;11.30;99.90;;;;;;5042817;28;20451;-82
2023/11/01 09:18:54;;;;;;;6.82;4.28;;;11.90;99.90;;;;;;5049147;28;20050;-82
2023/11/01 09:21:21;;;;;;;7.07;3.72;;;11.40;99.90;;;;;;5042347;28;20503;-81
2023/11/01 09:23:48;;;;;;;6.28;4.22;;;11.30;99.90;;;;;;5032154;28;20038;-82
2023/11/01 09:26:15;;;;;;;7.22;4.40;;;11.40;99.90;;;;;;5058373;28;20049;-81
2023/11/01 09:28:42;;;;;;;6.63;4.35;;;11.40;99.90;;;;;;5047568;28;20063;-82
2023/11/01 09:31:08;;;;;;;5.75;3.63;;;11.60;99.90;;;;;;5044278;28;20049;-81
2023/11/01 09:33:35;;;;;;;6.45;4.05;;;11.80;99.90;;;;;;5034378;28;20046;-81
2023/11/01 09:36:02;;;;;;;6.38;4.38;;;11.60;99.90;;;;;;5064483;28;20391;-80
2023/11/01 09:38:29;;;;;;;6.00;3.97;;;11.50;99.90;;;;;;5042733;28;20570;-80
2023/11/01 09:40:57;;;;;;;6.10;4.20;;;11.50;99.90;;;;;;5065905;28;20080;-82
2023/11/01 09:43:25;;;;;;;5.35;3.53;;;11.50;99.90;;;;;;5044699;28;20045;-81
2023/11/01 09:45:51;;;;;;;6.78;4.20;;;11.80;99.90;;;;;;5031771;28;20049;-81
2023/11/01 09:48:18;;;;;;;6.80;4.13;;;11.60;99.90;;;;;;5047943;28;20077;-81
2023/11/01 09:50:46;;;;;;;5.80;3.60;;;11.70;99.90;;;;;;5061958;28;20077;-81
2023/11/01 09:53:13;;;;;;;7.38;4.00;;;12.00;99.90;;;;;;5050919;28;20495;-81
2023/11/01 09:55:39;;;;;;;5.93;3.80;;;11.70;99.90;;;;;;5038000;28;20056;-81
2023/11/01 09:58:08;;;;;;;7.22;3.90;;;11.70;99.90;;;;;;5054055;28;20048;-82
2023/11/01 10:00:35;;;;;;;9.75;4.45;;;11.70;99.90;;;;;;5047117;28;20192;-81
2023/11/01 10:03:02;;;;;;;10.90;4.50;;;11.70;99.90;;;;;;5050038;28;20124;-80
2023/11/01 10:05:29;;;;;;;7.45;4.57;;;11.80;99.90;;;;;;5046544;28;20096;-81
2023/11/01 10:07:56;;;;;;;7.85;4.60;;;11.90;99.90;;;;;;5044267;28;20136;-82
2023/11/01 10:10:23;;;;;;;9.23;4.78;;;11.80;99.90;;;;;;5049581;28;20041;-81
2023/11/01 10:12:49;;;;;;;8.55;4.65;;;11.90;99.90;;;;;;5049994;28;20041;-80
2023/11/01 10:15:22;;;;;;;8.38;4.35;;;11.90;99.90;;;;;;5035924;28;20048;-80
2023/11/01 10:17:51;;;;;;;10.68;4.70;;;12.00;99.90;;;;;;5052330;28;20064;-81
2023/11/01 10:20:27;;;;;;;10.48;4.47;;;12.00;99.90;;;;;;5051133;28;20128;-82
2023/11/01 10:22:55;;;;;;;12.45;5.35;;;12.10;99.90;;;;;;5057546;28;20120;-81
2023/11/01 10:25:22;;;;;;;9.35;5.13;;;12.10;99.90;;;;;;5047360;28;20056;-81
2023/11/01 10:27:50;;;;;;;14.45;5.05;;;12.30;99.90;;;;;;5044670;28;20120;-82
2023/11/01 10:30:17;;;;;;;15.82;5.40;;;12.30;99.90;;;;;;5065610;28;20041;-82
2023/11/01 10:32:57;;;;;;;12.98;5.45;;;12.30;99.90;;;;;;5037243;28;20492;-82
2023/11/01 10:35:24;;;;;;;13.10;5.25;;;12.40;99.90;;;;;;5040637;28;20038;-82
2023/11/01 10:38:00;;;;;;;17.60;5.20;;;12.40;99.90;;;;;;5054360;28;20049;-81
2023/11/01 10:40:29;;;;;;;10.82;5.65;;;12.50;99.90;;;;;;5051041;28;20113;-81
2023/11/01 10:43:00;;;;;;;13.07;4.93;;;12.60;99.90;;;;;;5047861;28;20129;-83
2023/11/01 10:45:27;;;;;;;12.30;5.13;;;12.60;99.90;;;;;;5033787;28;20052;-87
2023/11/01 10:47:54;;;;;;;16.80;5.22;;;12.70;99.90;;;;;;5051673;28;20045;-87
2023/11/01 10:50:25;;;;;;;12.13;4.40;;;12.70;99.90;;;;;;5050663;28;20411;-87
2023/11/01 10:52:53;;;;;;;12.57;5.15;;;12.70;99.90;;;;;;5050887;28;20401;-87
2023/11/01 10:55:20;;;;;;;12.57;4.70;;;13.40;99.90;;;;;;5040975;28;20068;-86
2023/11/01 10:57:48;;;;;;;18.40;4.57;;;12.80;99.90;;;;;;5066783;28;20033;-87
2023/11/01 11:00:26;;;;;;;13.85;4.47;;;12.80;99.90;;;;;;5044890;28;20058;-87
2023/11/01 11:03:04;;;;;;;15.65;5.00;;;12.90;99.90;;;;;;5045258;28;20045;-87
2023/11/01 11:05:34;;;;;;;20.20;5.28;;;12.90;99.90;;;;;;5041513;28;20041;-86
2023/11/01 11:08:09;;;;;;;12.90;4.40;;;12.90;99.90;;;;;;5045510;28;20401;-87
2023/11/01 11:10:43;;;;;;;17.42;4.05;;;12.90;99.90;;;;;;5049972;28;20080;-88
2023/11/01 11:15:50;;;;;;;11.70;4.22;;;13.00;99.90;;;;;;5067617;28;20088;-88
2023/11/01 11:18:21;;;;;;;18.77;4.72;;;13.10;99.90;;;;;;5034830;28;20045;-88
2023/11/01 11:20:52;;;;;;;13.90;4.07;;;13.10;99.90;;;;;;5044329;28;20442;-88
2023/11/01 11:23:21;;;;;;;17.75;5.15;;;13.10;99.90;;;;;;5032084;28;20038;-88
2023/11/01 11:25:51;;;;;;;15.82;4.38;;;13.40;99.90;;;;;;5046163;28;20049;-89
2023/11/01 11:28:17;;;;;;;13.60;4.10;;;13.20;99.90;;;;;;5049924;28;20033;-85
2023/11/01 11:30:44;;;;;;;14.40;4.53;;;13.20;99.90;;;;;;5049936;28;20155;-87
2023/11/01 11:33:11;;;;;;;11.70;4.32;;;13.20;99.90;;;;;;5037342;28;20045;-86
2023/11/01 11:35:38;;;;;;;11.02;3.80;;;13.30;99.90;;;;;;5030011;28;20116;-86
2023/11/01 11:38:32;;;;;;;19.08;3.88;;;13.60;99.90;;;;;;5032695;28;20305;-86
2023/11/01 11:41:18;;;;;;;12.93;4.10;;;13.30;99.90;;;;;;5047547;28;20042;-86
2023/11/01 11:44:04;;;;;;;14.95;3.97;;;13.30;99.90;;;;;;5039059;28;20088;-86
2023/11/01 11:46:32;;;;;;;13.23;3.38;;;13.30;99.90;;;;;;5046401;28;20136;-86
2023/11/01 11:49:02;;;;;;;12.52;3.70;;;13.40;99.90;;;;;;5049283;28;20087;-86
2023/11/01 11:51:29;;;;;;;18.48;3.65;;;13.40;99.90;;;;;;5046838;28;20081;-86
2023/11/01 11:53:57;;;;;;;9.73;3.60;;;13.50;99.90;;;;;;5046741;28;20042;-86
2023/11/01 11:56:25;;;;;;;10.57;2.90;;;13.50;99.90;;;;;;5045982;28;20064;-86
2023/11/01 11:58:51;;;;;;;11.25;3.10;;;13.50;99.90;;;;;;5044421;28;20033;-85
2023/11/01 12:01:25;;;;;;;9.18;3.40;;;13.50;99.90;;;;;;5044865;28;20049;-86
2023/11/01 12:03:56;;;;;;;11.18;3.08;;;13.50;99.90;;;;;;5054445;28;20171;-86
2023/11/01 12:06:23;;;;;;;10.27;3.10;;;13.70;99.90;;;;;;5047203;28;20116;-87
2023/11/01 12:08:51;;;;;;;10.38;3.20;;;14.00;99.90;;;;;;5040508;28;20037;-87
2023/11/01 12:11:18;;;;;;;9.52;2.78;;;13.90;99.90;;;;;;5041558;28;20557;-86
2023/11/01 12:13:48;;;;;;;19.50;3.25;;;13.50;99.90;;;;;;5053864;28;20038;-87
2023/11/01 12:16:28;;;;;;;10.23;3.00;;;13.80;99.90;;;;;;5054185;28;20034;-87
2023/11/01 12:19:25;;;;;;;9.30;2.45;;;13.60;99.90;;;;;;5042303;28;20029;-87
2023/11/01 12:21:55;;;;;;;11.98;2.80;;;13.60;99.90;;;;;;5034458;28;20046;-86
2023/11/01 12:24:25;;;;;;;11.13;2.72;;;13.60;99.90;;;;;;5050460;28;20042;-86
2023/11/01 12:27:13;;;;;;;12.75;2.97;;;13.60;99.90;;;;;;5052877;28;20042;-87
2023/11/01 12:29:45;;;;;;;11.23;2.90;;;13.70;99.90;;;;;;5043054;28;20042;-87
2023/11/01 12:32:28;;;;;;;7.97;2.38;;;13.70;99.90;;;;;;5052896;28;20046;-87
2023/11/01 12:34:57;;;;;;;11.00;2.60;;;14.00;99.90;;;;;;5039722;28;20080;-87
2023/11/01 12:37:28;;;;;;;8.25;1.92;;;13.80;99.90;;;;;;5043645;28;20038;-87
2023/11/01 12:40:12;;;;;;;8.07;2.33;;;13.80;99.90;;;;;;5039488;28;20033;-88
2023/11/01 12:42:41;;;;;;;7.57;2.30;;;13.80;99.90;;;;;;5054056;28;20043;-87
2023/11/01 12:45:11;;;;;;;11.00;2.75;;;13.80;99.90;;;;;;5045247;28;20124;-87